sensor_id;sensor_type;location;lat;lon;timestamp;temperature;humidity
75985;DHT22;65033;44.660;37.758;2023-02-14T00:00:45;27.75;26.25
75985;DHT22;65033;44.660;37.758;2023-02-14T00:01:49;27.74;26.23
75985;DHT22;65033;44.660;37.758;2023-02-14T00:02:53;27.73;26.23
75985;DHT22;65033;44.660;37.758;2023-02-14T00:03:56;27.73;26.18
75985;DHT22;65033;44.660;37.758;2023-02-14T00:05:02;27.73;26.16
75985;DHT22;65033;44.660;37.758;2023-02-14T00:06:06;27.73;26.17
75985;DHT22;65033;44.660;37.758;2023-02-14T00:07:10;27.74;26.17
75985;DHT22;65033;44.660;37.758;2023-02-14T00:08:14;27.73;26.11
75985;DHT22;65033;44.660;37.758;2023-02-14T00:09:18;27.72;26.10
75985;DHT22;65033;44.660;37.758;2023-02-14T00:10:23;27.73;26.06
75985;DHT22;65033;44.660;37.758;2023-02-14T00:11:27;27.74;26.04
75985;DHT22;65033;44.660;37.758;2023-02-14T00:12:30;27.73;26.05
75985;DHT22;65033;44.660;37.758;2023-02-14T00:13:34;27.72;26.05
75985;DHT22;65033;44.660;37.758;2023-02-14T00:14:37;27.72;26.04
75985;DHT22;65033;44.660;37.758;2023-02-14T00:16:06;27.71;26.01
75985;DHT22;65033;44.660;37.758;2023-02-14T00:17:10;27.72;25.97
75985;DHT22;65033;44.660;37.758;2023-02-14T00:18:13;27.72;25.97
75985;DHT22;65033;44.660;37.758;2023-02-14T00:19:17;27.72;25.95
75985;DHT22;65033;44.660;37.758;2023-02-14T00:20:22;27.71;25.92
75985;DHT22;65033;44.660;37.758;2023-02-14T00:21:25;27.72;25.90
75985;DHT22;65033;44.660;37.758;2023-02-14T00:22:28;27.72;25.88
75985;DHT22;65033;44.660;37.758;2023-02-14T00:23:31;27.73;25.86
75985;DHT22;65033;44.660;37.758;2023-02-14T00:24:35;27.71;25.83
75985;DHT22;65033;44.660;37.758;2023-02-14T00:25:39;27.72;25.84
75985;DHT22;65033;44.660;37.758;2023-02-14T00:26:43;27.73;25.81
75985;DHT22;65033;44.660;37.758;2023-02-14T00:27:46;27.72;25.81
75985;DHT22;65033;44.660;37.758;2023-02-14T00:28:50;27.71;25.80
75985;DHT22;65033;44.660;37.758;2023-02-14T00:29:53;27.71;25.74
75985;DHT22;65033;44.660;37.758;2023-02-14T00:31:00;27.72;25.74
75985;DHT22;65033;44.660;37.758;2023-02-14T00:32:04;27.71;25.73
75985;DHT22;65033;44.660;37.758;2023-02-14T00:33:08;27.71;25.66
75985;DHT22;65033;44.660;37.758;2023-02-14T00:34:14;27.71;25.67
75985;DHT22;65033;44.660;37.758;2023-02-14T00:35:17;27.71;25.65
75985;DHT22;65033;44.660;37.758;2023-02-14T00:36:21;27.70;25.62
75985;DHT22;65033;44.660;37.758;2023-02-14T00:37:25;27.70;25.63
75985;DHT22;65033;44.660;37.758;2023-02-14T00:38:28;27.70;25.62
75985;DHT22;65033;44.660;37.758;2023-02-14T00:39:31;27.72;25.59
75985;DHT22;65033;44.660;37.758;2023-02-14T00:40:34;27.71;25.58
75985;DHT22;65033;44.660;37.758;2023-02-14T00:41:40;27.71;25.52
75985;DHT22;65033;44.660;37.758;2023-02-14T00:42:44;27.71;25.51
75985;DHT22;65033;44.660;37.758;2023-02-14T00:43:50;27.70;25.52
75985;DHT22;65033;44.660;37.758;2023-02-14T00:44:54;27.70;25.49
75985;DHT22;65033;44.660;37.758;2023-02-14T00:45:57;27.71;25.46
75985;DHT22;65033;44.660;37.758;2023-02-14T00:47:00;27.70;25.46
75985;DHT22;65033;44.660;37.758;2023-02-14T00:48:04;27.70;25.44
75985;DHT22;65033;44.660;37.758;2023-02-14T00:49:07;27.69;25.43
75985;DHT22;65033;44.660;37.758;2023-02-14T00:50:12;27.70;25.39
75985;DHT22;65033;44.660;37.758;2023-02-14T00:51:16;27.71;25.38
75985;DHT22;65033;44.660;37.758;2023-02-14T00:52:20;27.70;25.34
75985;DHT22;65033;44.660;37.758;2023-02-14T00:53:24;27.70;25.33
75985;DHT22;65033;44.660;37.758;2023-02-14T00:54:27;27.70;25.34
75985;DHT22;65033;44.660;37.758;2023-02-14T00:55:33;27.70;25.30
75985;DHT22;65033;44.660;37.758;2023-02-14T00:56:36;27.69;25.28
75985;DHT22;65033;44.660;37.758;2023-02-14T00:57:41;27.68;25.27
75985;DHT22;65033;44.660;37.758;2023-02-14T00:58:45;27.68;25.28
75985;DHT22;65033;44.660;37.758;2023-02-14T00:59:48;27.69;25.24
75985;DHT22;65033;44.660;37.758;2023-02-14T01:00:51;27.69;25.23
75985;DHT22;65033;44.660;37.758;2023-02-14T01:01:55;27.67;25.22
75985;DHT22;65033;44.660;37.758;2023-02-14T01:02:59;27.68;25.23
75985;DHT22;65033;44.660;37.758;2023-02-14T01:04:04;27.68;25.20
75985;DHT22;65033;44.660;37.758;2023-02-14T01:05:07;27.68;25.17
75985;DHT22;65033;44.660;37.758;2023-02-14T01:06:11;27.67;25.19
75985;DHT22;65033;44.660;37.758;2023-02-14T01:07:14;27.68;25.14
75985;DHT22;65033;44.660;37.758;2023-02-14T01:08:18;27.67;25.17
75985;DHT22;65033;44.660;37.758;2023-02-14T01:09:21;27.68;25.17
75985;DHT22;65033;44.660;37.758;2023-02-14T01:10:24;27.66;25.16
75985;DHT22;65033;44.660;37.758;2023-02-14T01:11:28;27.67;25.13
75985;DHT22;65033;44.660;37.758;2023-02-14T01:12:32;27.66;25.09
75985;DHT22;65033;44.660;37.758;2023-02-14T01:13:37;27.66;25.07
75985;DHT22;65033;44.660;37.758;2023-02-14T01:14:40;27.68;25.06
75985;DHT22;65033;44.660;37.758;2023-02-14T01:15:45;27.66;25.01
75985;DHT22;65033;44.660;37.758;2023-02-14T01:16:49;27.66;25.01
75985;DHT22;65033;44.660;37.758;2023-02-14T01:17:52;27.66;24.99
75985;DHT22;65033;44.660;37.758;2023-02-14T01:18:57;27.67;24.98
75985;DHT22;65033;44.660;37.758;2023-02-14T01:20:08;27.67;24.94
75985;DHT22;65033;44.660;37.758;2023-02-14T01:21:14;27.67;24.95
75985;DHT22;65033;44.660;37.758;2023-02-14T01:22:18;27.68;24.92
75985;DHT22;65033;44.660;37.758;2023-02-14T01:23:21;27.67;24.89
75985;DHT22;65033;44.660;37.758;2023-02-14T01:24:24;27.68;24.87
75985;DHT22;65033;44.660;37.758;2023-02-14T01:25:28;27.68;24.85
75985;DHT22;65033;44.660;37.758;2023-02-14T01:26:34;27.69;24.82
75985;DHT22;65033;44.660;37.758;2023-02-14T01:27:37;27.67;24.82
75985;DHT22;65033;44.660;37.758;2023-02-14T01:28:42;27.68;24.78
75985;DHT22;65033;44.660;37.758;2023-02-14T01:29:46;27.67;24.78
75985;DHT22;65033;44.660;37.758;2023-02-14T01:30:49;27.68;24.77
75985;DHT22;65033;44.660;37.758;2023-02-14T01:31:53;27.68;24.74
75985;DHT22;65033;44.660;37.758;2023-02-14T01:32:59;27.68;24.71
75985;DHT22;65033;44.660;37.758;2023-02-14T01:34:03;27.67;24.69
75985;DHT22;65033;44.660;37.758;2023-02-14T01:35:06;27.67;24.69
75985;DHT22;65033;44.660;37.758;2023-02-14T01:36:15;27.65;24.64
75985;DHT22;65033;44.660;37.758;2023-02-14T01:37:18;27.66;24.66
75985;DHT22;65033;44.660;37.758;2023-02-14T01:38:21;27.66;24.64
75985;DHT22;65033;44.660;37.758;2023-02-14T01:39:25;27.66;24.62
75985;DHT22;65033;44.660;37.758;2023-02-14T01:40:29;27.65;24.65
75985;DHT22;65033;44.660;37.758;2023-02-14T01:41:34;27.65;24.59
75985;DHT22;65033;44.660;37.758;2023-02-14T01:42:38;27.66;24.61
75985;DHT22;65033;44.660;37.758;2023-02-14T01:43:51;27.64;24.59
75985;DHT22;65033;44.660;37.758;2023-02-14T01:45:01;27.65;24.57
75985;DHT22;65033;44.660;37.758;2023-02-14T01:46:06;27.65;24.59
75985;DHT22;65033;44.660;37.758;2023-02-14T01:47:11;27.64;24.58
75985;DHT22;65033;44.660;37.758;2023-02-14T01:48:16;27.65;24.56
75985;DHT22;65033;44.660;37.758;2023-02-14T01:49:21;27.65;24.55
75985;DHT22;65033;44.660;37.758;2023-02-14T01:50:29;27.63;24.53
75985;DHT22;65033;44.660;37.758;2023-02-14T01:51:38;27.65;24.54
75985;DHT22;65033;44.660;37.758;2023-02-14T01:52:45;27.64;24.52
75985;DHT22;65033;44.660;37.758;2023-02-14T01:53:51;27.63;24.49
75985;DHT22;65033;44.660;37.758;2023-02-14T01:54:57;27.64;24.51
75985;DHT22;65033;44.660;37.758;2023-02-14T01:56:05;27.64;24.47
75985;DHT22;65033;44.660;37.758;2023-02-14T01:57:12;27.63;24.50
75985;DHT22;65033;44.660;37.758;2023-02-14T01:58:19;27.63;24.49
75985;DHT22;65033;44.660;37.758;2023-02-14T01:59:28;27.63;24.48
75985;DHT22;65033;44.660;37.758;2023-02-14T02:00:34;27.65;24.45
75985;DHT22;65033;44.660;37.758;2023-02-14T02:01:58;27.61;24.46
75985;DHT22;65033;44.660;37.758;2023-02-14T02:03:04;27.63;24.45
75985;DHT22;65033;44.660;37.758;2023-02-14T02:04:10;27.61;24.47
75985;DHT22;65033;44.660;37.758;2023-02-14T02:05:15;27.61;24.44
75985;DHT22;65033;44.660;37.758;2023-02-14T02:06:21;27.61;24.42
75985;DHT22;65033;44.660;37.758;2023-02-14T02:07:26;27.61;24.41
75985;DHT22;65033;44.660;37.758;2023-02-14T02:08:34;27.61;24.39
75985;DHT22;65033;44.660;37.758;2023-02-14T02:09:43;27.61;24.40
75985;DHT22;65033;44.660;37.758;2023-02-14T02:10:50;27.61;24.38
75985;DHT22;65033;44.660;37.758;2023-02-14T02:11:54;27.61;24.39
75985;DHT22;65033;44.660;37.758;2023-02-14T02:13:02;27.59;24.34
75985;DHT22;65033;44.660;37.758;2023-02-14T02:14:12;27.60;24.33
75985;DHT22;65033;44.660;37.758;2023-02-14T02:15:17;27.60;24.34
75985;DHT22;65033;44.660;37.758;2023-02-14T02:16:55;27.60;24.29
75985;DHT22;65033;44.660;37.758;2023-02-14T02:18:07;27.59;24.30
75985;DHT22;65033;44.660;37.758;2023-02-14T02:19:42;27.59;24.28
75985;DHT22;65033;44.660;37.758;2023-02-14T02:21:08;27.58;24.27
75985;DHT22;65033;44.660;37.758;2023-02-14T02:24:03;27.57;24.24
75985;DHT22;65033;44.660;37.758;2023-02-14T02:25:20;27.57;24.20
75985;DHT22;65033;44.660;37.758;2023-02-14T02:26:51;27.57;24.18
75985;DHT22;65033;44.660;37.758;2023-02-14T02:28:18;27.56;24.17
75985;DHT22;65033;44.660;37.758;2023-02-14T02:31:31;27.55;24.14
75985;DHT22;65033;44.660;37.758;2023-02-14T02:36:06;27.56;24.08
75985;DHT22;65033;44.660;37.758;2023-02-14T02:37:34;27.56;24.04
75985;DHT22;65033;44.660;37.758;2023-02-14T02:38:52;27.55;24.01
75985;DHT22;65033;44.660;37.758;2023-02-14T02:40:19;27.55;23.96
75985;DHT22;65033;44.660;37.758;2023-02-14T02:41:33;27.55;24.01
75985;DHT22;65033;44.660;37.758;2023-02-14T02:42:46;27.56;23.95
75985;DHT22;65033;44.660;37.758;2023-02-14T02:43:54;27.55;23.98
75985;DHT22;65033;44.660;37.758;2023-02-14T02:45:08;27.55;23.99
75985;DHT22;65033;44.660;37.758;2023-02-14T02:46:19;27.55;23.98
75985;DHT22;65033;44.660;37.758;2023-02-14T02:47:51;27.55;23.98
75985;DHT22;65033;44.660;37.758;2023-02-14T02:49:00;27.55;23.89
75985;DHT22;65033;44.660;37.758;2023-02-14T02:50:17;27.55;23.93
75985;DHT22;65033;44.660;37.758;2023-02-14T02:51:48;27.55;23.91
75985;DHT22;65033;44.660;37.758;2023-02-14T02:53:36;27.54;23.93
75985;DHT22;65033;44.660;37.758;2023-02-14T02:54:45;27.54;23.90
75985;DHT22;65033;44.660;37.758;2023-02-14T02:55:54;27.54;23.88
75985;DHT22;65033;44.660;37.758;2023-02-14T02:57:22;27.53;23.85
75985;DHT22;65033;44.660;37.758;2023-02-14T02:58:31;27.54;23.86
75985;DHT22;65033;44.660;37.758;2023-02-14T02:59:38;27.55;23.87
75985;DHT22;65033;44.660;37.758;2023-02-14T03:00:43;27.55;23.85
75985;DHT22;65033;44.660;37.758;2023-02-14T03:01:52;27.54;23.85
75985;DHT22;65033;44.660;37.758;2023-02-14T03:02:57;27.55;23.81
75985;DHT22;65033;44.660;37.758;2023-02-14T03:04:19;27.55;23.84
75985;DHT22;65033;44.660;37.758;2023-02-14T03:05:42;27.55;23.79
75985;DHT22;65033;44.660;37.758;2023-02-14T03:06:47;27.54;23.79
75985;DHT22;65033;44.660;37.758;2023-02-14T03:07:51;27.55;23.74
75985;DHT22;65033;44.660;37.758;2023-02-14T03:08:54;27.54;23.72
75985;DHT22;65033;44.660;37.758;2023-02-14T03:09:59;27.55;23.71
75985;DHT22;65033;44.660;37.758;2023-02-14T03:11:04;27.55;23.72
75985;DHT22;65033;44.660;37.758;2023-02-14T03:12:14;27.54;23.73
75985;DHT22;65033;44.660;37.758;2023-02-14T03:13:42;27.54;23.71
75985;DHT22;65033;44.660;37.758;2023-02-14T03:14:53;27.52;23.72
75985;DHT22;65033;44.660;37.758;2023-02-14T03:16:18;27.52;23.69
75985;DHT22;65033;44.660;37.758;2023-02-14T03:17:29;27.52;23.70
75985;DHT22;65033;44.660;37.758;2023-02-14T03:18:43;27.53;23.69
75985;DHT22;65033;44.660;37.758;2023-02-14T03:19:55;27.53;23.69
75985;DHT22;65033;44.660;37.758;2023-02-14T03:21:24;27.51;23.68
75985;DHT22;65033;44.660;37.758;2023-02-14T03:22:48;27.52;23.65
75985;DHT22;65033;44.660;37.758;2023-02-14T03:23:58;27.53;23.68
75985;DHT22;65033;44.660;37.758;2023-02-14T03:25:04;27.53;23.69
75985;DHT22;65033;44.660;37.758;2023-02-14T03:26:13;27.52;23.68
75985;DHT22;65033;44.660;37.758;2023-02-14T03:27:22;27.52;23.71
75985;DHT22;65033;44.660;37.758;2023-02-14T03:28:31;27.51;23.69
75985;DHT22;65033;44.660;37.758;2023-02-14T03:29:45;27.51;23.67
75985;DHT22;65033;44.660;37.758;2023-02-14T03:30:57;27.51;23.70
75985;DHT22;65033;44.660;37.758;2023-02-14T03:32:10;27.53;23.69
75985;DHT22;65033;44.660;37.758;2023-02-14T03:33:21;27.52;23.66
75985;DHT22;65033;44.660;37.758;2023-02-14T03:34:31;27.53;23.60
75985;DHT22;65033;44.660;37.758;2023-02-14T03:35:43;27.53;23.62
75985;DHT22;65033;44.660;37.758;2023-02-14T03:36:53;27.53;23.64
75985;DHT22;65033;44.660;37.758;2023-02-14T03:38:04;27.53;23.60
75985;DHT22;65033;44.660;37.758;2023-02-14T03:39:14;27.53;23.58
75985;DHT22;65033;44.660;37.758;2023-02-14T03:40:22;27.54;23.59
75985;DHT22;65033;44.660;37.758;2023-02-14T03:41:32;27.55;23.55
75985;DHT22;65033;44.660;37.758;2023-02-14T03:42:41;27.55;23.53
75985;DHT22;65033;44.660;37.758;2023-02-14T03:43:49;27.54;23.53
75985;DHT22;65033;44.660;37.758;2023-02-14T03:44:54;27.56;23.47
75985;DHT22;65033;44.660;37.758;2023-02-14T03:46:03;27.55;23.47
75985;DHT22;65033;44.660;37.758;2023-02-14T03:47:10;27.55;23.50
75985;DHT22;65033;44.660;37.758;2023-02-14T03:48:15;27.55;23.47
75985;DHT22;65033;44.660;37.758;2023-02-14T03:49:25;27.54;23.53
75985;DHT22;65033;44.660;37.758;2023-02-14T03:50:28;27.55;23.50
75985;DHT22;65033;44.660;37.758;2023-02-14T03:51:33;27.54;23.53
75985;DHT22;65033;44.660;37.758;2023-02-14T03:52:39;27.54;23.49
75985;DHT22;65033;44.660;37.758;2023-02-14T03:53:46;27.54;23.49
75985;DHT22;65033;44.660;37.758;2023-02-14T03:54:51;27.54;23.51
75985;DHT22;65033;44.660;37.758;2023-02-14T03:56:05;27.52;23.30
75985;DHT22;65033;44.660;37.758;2023-02-14T03:57:14;27.52;23.15
75985;DHT22;65033;44.660;37.758;2023-02-14T03:58:24;27.52;23.26
75985;DHT22;65033;44.660;37.758;2023-02-14T03:59:28;27.51;23.55
75985;DHT22;65033;44.660;37.758;2023-02-14T04:00:35;27.50;23.59
75985;DHT22;65033;44.660;37.758;2023-02-14T04:01:44;27.49;23.62
75985;DHT22;65033;44.660;37.758;2023-02-14T04:02:52;27.52;23.55
75985;DHT22;65033;44.660;37.758;2023-02-14T04:03:56;27.51;23.55
75985;DHT22;65033;44.660;37.758;2023-02-14T04:05:04;27.51;23.53
75985;DHT22;65033;44.660;37.758;2023-02-14T04:06:09;27.51;23.97
75985;DHT22;65033;44.660;37.758;2023-02-14T04:07:15;27.52;23.71
75985;DHT22;65033;44.660;37.758;2023-02-14T04:08:22;27.51;23.68
75985;DHT22;65033;44.660;37.758;2023-02-14T04:09:28;27.51;23.60
75985;DHT22;65033;44.660;37.758;2023-02-14T04:10:31;27.50;23.59
75985;DHT22;65033;44.660;37.758;2023-02-14T04:11:34;27.51;23.59
75985;DHT22;65033;44.660;37.758;2023-02-14T04:12:38;27.51;23.61
75985;DHT22;65033;44.660;37.758;2023-02-14T04:13:41;27.52;23.66
75985;DHT22;65033;44.660;37.758;2023-02-14T04:14:44;27.52;23.63
75985;DHT22;65033;44.660;37.758;2023-02-14T04:15:47;27.53;23.64
75985;DHT22;65033;44.660;37.758;2023-02-14T04:16:51;27.53;23.66
75985;DHT22;65033;44.660;37.758;2023-02-14T04:18:12;27.53;23.63
75985;DHT22;65033;44.660;37.758;2023-02-14T04:19:34;27.53;23.68
75985;DHT22;65033;44.660;37.758;2023-02-14T04:20:37;27.52;23.66
75985;DHT22;65033;44.660;37.758;2023-02-14T04:21:40;27.52;23.68
75985;DHT22;65033;44.660;37.758;2023-02-14T04:22:44;27.54;23.63
75985;DHT22;65033;44.660;37.758;2023-02-14T04:23:50;27.54;23.63
75985;DHT22;65033;44.660;37.758;2023-02-14T04:24:55;27.54;23.66
75985;DHT22;65033;44.660;37.758;2023-02-14T04:25:58;27.54;23.70
75985;DHT22;65033;44.660;37.758;2023-02-14T04:27:02;27.53;23.68
75985;DHT22;65033;44.660;37.758;2023-02-14T04:28:14;27.55;23.64
75985;DHT22;65033;44.660;37.758;2023-02-14T04:29:18;27.55;23.66
75985;DHT22;65033;44.660;37.758;2023-02-14T04:30:21;27.55;23.65
75985;DHT22;65033;44.660;37.758;2023-02-14T04:31:24;27.53;23.63
75985;DHT22;65033;44.660;37.758;2023-02-14T04:32:27;27.54;23.61
75985;DHT22;65033;44.660;37.758;2023-02-14T04:33:31;27.54;23.61
75985;DHT22;65033;44.660;37.758;2023-02-14T04:34:35;27.55;23.58
75985;DHT22;65033;44.660;37.758;2023-02-14T04:35:39;27.54;23.65
75985;DHT22;65033;44.660;37.758;2023-02-14T04:36:42;27.54;23.60
75985;DHT22;65033;44.660;37.758;2023-02-14T04:37:45;27.54;23.57
75985;DHT22;65033;44.660;37.758;2023-02-14T04:38:48;27.53;23.59
75985;DHT22;65033;44.660;37.758;2023-02-14T04:39:51;27.53;23.32
75985;DHT22;65033;44.660;37.758;2023-02-14T04:40:56;27.51;22.96
75985;DHT22;65033;44.660;37.758;2023-02-14T04:41:59;27.51;23.04
75985;DHT22;65033;44.660;37.758;2023-02-14T04:43:03;27.51;23.17
75985;DHT22;65033;44.660;37.758;2023-02-14T04:44:06;27.50;23.39
75985;DHT22;65033;44.660;37.758;2023-02-14T04:45:10;27.51;23.50
75985;DHT22;65033;44.660;37.758;2023-02-14T04:46:13;27.50;23.51
75985;DHT22;65033;44.660;37.758;2023-02-14T04:47:16;27.51;23.53
75985;DHT22;65033;44.660;37.758;2023-02-14T04:48:19;27.52;23.50
75985;DHT22;65033;44.660;37.758;2023-02-14T04:49:22;27.51;23.46
75985;DHT22;65033;44.660;37.758;2023-02-14T04:50:26;27.53;23.46
75985;DHT22;65033;44.660;37.758;2023-02-14T04:51:29;27.53;23.46
75985;DHT22;65033;44.660;37.758;2023-02-14T04:52:32;27.53;23.47
75985;DHT22;65033;44.660;37.758;2023-02-14T04:53:35;27.53;23.49
75985;DHT22;65033;44.660;37.758;2023-02-14T04:54:42;27.53;23.52
75985;DHT22;65033;44.660;37.758;2023-02-14T04:55:47;27.53;23.51
75985;DHT22;65033;44.660;37.758;2023-02-14T04:56:52;27.53;23.56
75985;DHT22;65033;44.660;37.758;2023-02-14T04:57:55;27.54;23.59
75985;DHT22;65033;44.660;37.758;2023-02-14T04:58:59;27.53;23.63
75985;DHT22;65033;44.660;37.758;2023-02-14T05:00:03;27.53;23.66
75985;DHT22;65033;44.660;37.758;2023-02-14T05:01:07;27.54;23.69
75985;DHT22;65033;44.660;37.758;2023-02-14T05:02:11;27.54;23.70
75985;DHT22;65033;44.660;37.758;2023-02-14T05:03:14;27.54;23.71
75985;DHT22;65033;44.660;37.758;2023-02-14T05:04:17;27.54;23.72
75985;DHT22;65033;44.660;37.758;2023-02-14T05:05:20;27.55;23.75
75985;DHT22;65033;44.660;37.758;2023-02-14T05:06:24;27.56;23.74
75985;DHT22;65033;44.660;37.758;2023-02-14T05:07:27;27.55;23.79
75985;DHT22;65033;44.660;37.758;2023-02-14T05:08:30;27.55;23.78
75985;DHT22;65033;44.660;37.758;2023-02-14T05:09:34;27.55;23.79
75985;DHT22;65033;44.660;37.758;2023-02-14T05:10:37;27.55;23.79
75985;DHT22;65033;44.660;37.758;2023-02-14T05:11:40;27.55;23.81
75985;DHT22;65033;44.660;37.758;2023-02-14T05:12:45;27.55;23.81
75985;DHT22;65033;44.660;37.758;2023-02-14T05:13:48;27.55;23.82
75985;DHT22;65033;44.660;37.758;2023-02-14T05:14:51;27.56;23.79
75985;DHT22;65033;44.660;37.758;2023-02-14T05:15:54;27.56;23.82
75985;DHT22;65033;44.660;37.758;2023-02-14T05:16:57;27.55;23.75
75985;DHT22;65033;44.660;37.758;2023-02-14T05:18:01;27.54;23.34
75985;DHT22;65033;44.660;37.758;2023-02-14T05:19:04;27.56;23.30
75985;DHT22;65033;44.660;37.758;2023-02-14T05:20:08;27.53;23.16
75985;DHT22;65033;44.660;37.758;2023-02-14T05:21:12;27.52;23.20
75985;DHT22;65033;44.660;37.758;2023-02-14T05:22:15;27.52;23.40
75985;DHT22;65033;44.660;37.758;2023-02-14T05:23:20;27.51;23.60
75985;DHT22;65033;44.660;37.758;2023-02-14T05:24:24;27.52;23.65
75985;DHT22;65033;44.660;37.758;2023-02-14T05:25:27;27.52;23.64
75985;DHT22;65033;44.660;37.758;2023-02-14T05:26:30;27.51;23.63
75985;DHT22;65033;44.660;37.758;2023-02-14T05:27:33;27.52;23.61
75985;DHT22;65033;44.660;37.758;2023-02-14T05:28:38;27.52;23.61
75985;DHT22;65033;44.660;37.758;2023-02-14T05:29:42;27.53;23.59
75985;DHT22;65033;44.660;37.758;2023-02-14T05:30:46;27.53;23.58
75985;DHT22;65033;44.660;37.758;2023-02-14T05:31:49;27.52;23.57
75985;DHT22;65033;44.660;37.758;2023-02-14T05:32:53;27.53;23.55
75985;DHT22;65033;44.660;37.758;2023-02-14T05:33:56;27.53;23.53
75985;DHT22;65033;44.660;37.758;2023-02-14T05:35:00;27.53;23.53
75985;DHT22;65033;44.660;37.758;2023-02-14T05:36:03;27.52;23.63
75985;DHT22;65033;44.660;37.758;2023-02-14T05:37:06;27.52;23.70
75985;DHT22;65033;44.660;37.758;2023-02-14T05:38:10;27.52;23.62
75985;DHT22;65033;44.660;37.758;2023-02-14T05:39:15;27.52;23.62
75985;DHT22;65033;44.660;37.758;2023-02-14T05:40:18;27.53;23.66
75985;DHT22;65033;44.660;37.758;2023-02-14T05:41:21;27.53;23.71
75985;DHT22;65033;44.660;37.758;2023-02-14T05:42:24;27.55;23.76
75985;DHT22;65033;44.660;37.758;2023-02-14T05:43:28;27.54;23.78
75985;DHT22;65033;44.660;37.758;2023-02-14T05:44:33;27.54;23.87
75985;DHT22;65033;44.660;37.758;2023-02-14T05:45:37;27.55;23.87
75985;DHT22;65033;44.660;37.758;2023-02-14T05:46:40;27.56;23.90
75985;DHT22;65033;44.660;37.758;2023-02-14T05:47:43;27.55;23.91
75985;DHT22;65033;44.660;37.758;2023-02-14T05:48:46;27.56;23.95
75985;DHT22;65033;44.660;37.758;2023-02-14T05:49:50;27.55;24.02
75985;DHT22;65033;44.660;37.758;2023-02-14T05:50:53;27.57;24.01
75985;DHT22;65033;44.660;37.758;2023-02-14T05:51:56;27.56;24.04
75985;DHT22;65033;44.660;37.758;2023-02-14T05:53:00;27.55;24.06
75985;DHT22;65033;44.660;37.758;2023-02-14T05:54:03;27.56;24.04
75985;DHT22;65033;44.660;37.758;2023-02-14T05:55:06;27.56;24.15
75985;DHT22;65033;44.660;37.758;2023-02-14T05:56:09;27.58;24.18
75985;DHT22;65033;44.660;37.758;2023-02-14T05:57:13;27.59;24.04
75985;DHT22;65033;44.660;37.758;2023-02-14T05:58:16;27.60;23.65
75985;DHT22;65033;44.660;37.758;2023-02-14T05:59:19;27.61;23.56
75985;DHT22;65033;44.660;37.758;2023-02-14T06:00:25;27.61;23.48
75985;DHT22;65033;44.660;37.758;2023-02-14T06:01:29;27.65;23.66
75985;DHT22;65033;44.660;37.758;2023-02-14T06:02:33;27.65;23.80
75985;DHT22;65033;44.660;37.758;2023-02-14T06:03:36;27.66;23.79
75985;DHT22;65033;44.660;37.758;2023-02-14T06:04:41;27.66;23.91
75985;DHT22;65033;44.660;37.758;2023-02-14T06:05:44;27.66;23.84
75985;DHT22;65033;44.660;37.758;2023-02-14T06:06:47;27.67;23.82
75985;DHT22;65033;44.660;37.758;2023-02-14T06:07:51;27.70;23.80
75985;DHT22;65033;44.660;37.758;2023-02-14T06:08:54;27.69;23.75
75985;DHT22;65033;44.660;37.758;2023-02-14T06:09:57;27.70;23.82
75985;DHT22;65033;44.660;37.758;2023-02-14T06:11:00;27.72;23.78
75985;DHT22;65033;44.660;37.758;2023-02-14T06:12:04;27.72;23.81
75985;DHT22;65033;44.660;37.758;2023-02-14T06:13:07;27.73;23.81
75985;DHT22;65033;44.660;37.758;2023-02-14T06:14:12;27.74;23.74
75985;DHT22;65033;44.660;37.758;2023-02-14T06:15:16;27.75;23.82
75985;DHT22;65033;44.660;37.758;2023-02-14T06:16:22;27.76;23.85
75985;DHT22;65033;44.660;37.758;2023-02-14T06:17:25;27.76;23.91
75985;DHT22;65033;44.660;37.758;2023-02-14T06:18:29;27.76;23.85
75985;DHT22;65033;44.660;37.758;2023-02-14T06:19:32;27.80;23.82
75985;DHT22;65033;44.660;37.758;2023-02-14T06:20:35;27.80;23.79
75985;DHT22;65033;44.660;37.758;2023-02-14T06:21:38;27.80;23.78
75985;DHT22;65033;44.660;37.758;2023-02-14T06:22:42;27.81;23.88
75985;DHT22;65033;44.660;37.758;2023-02-14T06:23:45;27.81;23.88
75985;DHT22;65033;44.660;37.758;2023-02-14T06:24:48;27.82;23.88
75985;DHT22;65033;44.660;37.758;2023-02-14T06:25:51;27.83;23.84
75985;DHT22;65033;44.660;37.758;2023-02-14T06:26:54;27.84;23.71
75985;DHT22;65033;44.660;37.758;2023-02-14T06:27:58;27.85;23.75
75985;DHT22;65033;44.660;37.758;2023-02-14T06:29:02;27.84;23.67
75985;DHT22;65033;44.660;37.758;2023-02-14T06:30:07;27.86;23.70
75985;DHT22;65033;44.660;37.758;2023-02-14T06:31:15;27.88;23.62
75985;DHT22;65033;44.660;37.758;2023-02-14T06:32:20;27.87;23.61
75985;DHT22;65033;44.660;37.758;2023-02-14T06:33:24;27.88;23.66
75985;DHT22;65033;44.660;37.758;2023-02-14T06:34:27;27.89;23.64
75985;DHT22;65033;44.660;37.758;2023-02-14T06:35:30;27.88;23.74
75985;DHT22;65033;44.660;37.758;2023-02-14T06:36:33;27.90;23.69
75985;DHT22;65033;44.660;37.758;2023-02-14T06:37:36;27.90;23.76
75985;DHT22;65033;44.660;37.758;2023-02-14T06:38:40;27.93;23.69
75985;DHT22;65033;44.660;37.758;2023-02-14T06:39:43;27.94;23.63
75985;DHT22;65033;44.660;37.758;2023-02-14T06:40:47;27.94;23.66
75985;DHT22;65033;44.660;37.758;2023-02-14T06:41:50;27.94;23.73
75985;DHT22;65033;44.660;37.758;2023-02-14T06:42:53;27.95;23.69
75985;DHT22;65033;44.660;37.758;2023-02-14T06:43:57;27.95;23.78
75985;DHT22;65033;44.660;37.758;2023-02-14T06:45:00;27.97;23.80
75985;DHT22;65033;44.660;37.758;2023-02-14T06:46:04;27.96;23.81
75985;DHT22;65033;44.660;37.758;2023-02-14T06:47:08;27.97;23.84
75985;DHT22;65033;44.660;37.758;2023-02-14T06:48:12;27.98;23.50
75985;DHT22;65033;44.660;37.758;2023-02-14T06:49:16;27.99;23.49
75985;DHT22;65033;44.660;37.758;2023-02-14T06:50:19;27.98;23.66
75985;DHT22;65033;44.660;37.758;2023-02-14T06:51:23;27.99;23.73
75985;DHT22;65033;44.660;37.758;2023-02-14T06:52:26;28.00;23.82
75985;DHT22;65033;44.660;37.758;2023-02-14T06:53:29;28.00;23.82
75985;DHT22;65033;44.660;37.758;2023-02-14T06:54:32;28.02;23.84
75985;DHT22;65033;44.660;37.758;2023-02-14T06:55:36;28.01;23.83
75985;DHT22;65033;44.660;37.758;2023-02-14T06:56:39;28.02;23.86
75985;DHT22;65033;44.660;37.758;2023-02-14T06:57:42;28.04;23.88
75985;DHT22;65033;44.660;37.758;2023-02-14T06:58:46;28.04;23.89
75985;DHT22;65033;44.660;37.758;2023-02-14T06:59:49;28.05;23.91